Glencoe, Ohio
Current Conditions -  °F | °C
As of 10:53 PM on Tuesday 21 Oct 2014 (Local Time) from KHLG Reporting Station
Overcast Overcast  
Wind Chill: 43°   Ceiling: 900
Heat Index: 46°   Visibility: 10mi
Dew Point: 43°   Wind: 6mph
Humidity: 89%   Direction: 300°WNW
Pressure: 30.05"   Gusts: NA
Location:  40.01°N, 80.89°W
Report Text: KHLG 220253Z AUTO 30005KT 10SM OVC009 08/06 A3005 RMK AO2 SLP181 T00780061 51013
Loading
Personal Weather Stations






























Interactive Weather Map
Tropical Storm Tracking
New forecast layout! Learn more

10-Day Weather Forecast

Advertisements
Track Severe Weather on mobile